createdAt,value
2019-04-20T00:01:36.913Z,14.68
2019-04-20T00:04:09.924Z,14.67
2019-04-20T00:06:46.041Z,14.61
2019-04-20T00:09:18.284Z,14.58
2019-04-20T00:11:53.577Z,14.59
2019-04-20T00:14:19.250Z,14.60
2019-04-20T00:16:44.269Z,14.54
2019-04-20T00:19:21.697Z,14.60
2019-04-20T00:21:56.153Z,14.62
2019-04-20T00:24:27.283Z,14.58
2019-04-20T00:27:13.617Z,14.47
2019-04-20T00:29:45.235Z,14.43
2019-04-20T00:32:10.554Z,14.43
2019-04-20T00:34:33.949Z,14.35
2019-04-20T00:37:00.306Z,14.21
2019-04-20T00:39:30.026Z,14.14
2019-04-20T00:42:04.428Z,14.16
2019-04-20T00:44:35.827Z,14.13
2019-04-20T00:47:12.013Z,14.02
2019-04-20T00:49:48.280Z,13.97
2019-04-20T00:52:27.395Z,14.01
2019-04-20T00:54:36.947Z,14.02
2019-04-20T00:57:20.341Z,13.97
2019-04-20T01:00:03.330Z,13.96
2019-04-20T01:02:22.126Z,13.94
2019-04-20T01:04:58.028Z,13.92
2019-04-20T01:07:27.412Z,13.90
2019-04-20T01:10:02.911Z,13.84
2019-04-20T01:12:35.066Z,13.88
2019-04-20T01:15:09.918Z,13.88
2019-04-20T01:17:37.765Z,13.88
2019-04-20T01:20:09.368Z,13.88
2019-04-20T01:22:44.565Z,13.85
2019-04-20T01:25:20.918Z,13.87
2019-04-20T01:28:02.275Z,13.89
2019-04-20T01:30:25.177Z,13.86
2019-04-20T01:33:02.483Z,13.81
2019-04-20T01:35:35.593Z,13.73
2019-04-20T01:38:08.530Z,13.71
2019-04-20T01:40:21.584Z,13.60
2019-04-20T01:42:51.314Z,13.45
2019-04-20T01:45:27.486Z,13.31
2019-04-20T01:47:54.999Z,13.23
2019-04-20T01:50:27.661Z,13.11
2019-04-20T01:53:08.282Z,13.03
2019-04-20T01:55:56.105Z,12.97
2019-04-20T01:58:30.280Z,12.91
2019-04-20T02:00:44.013Z,12.88
2019-04-20T02:03:38.475Z,12.80
2019-04-20T02:06:11.673Z,12.72
2019-04-20T02:08:39.924Z,12.64
2019-04-20T02:11:17.806Z,12.54
2019-04-20T02:13:48.085Z,12.52
2019-04-20T02:16:22.922Z,12.49
2019-04-20T02:19:02.088Z,12.43
2019-04-20T02:21:33.530Z,12.39
2019-04-20T02:23:53.121Z,12.30
2019-04-20T02:26:17.950Z,12.29
2019-04-20T02:29:14.512Z,12.26
2019-04-20T02:34:39.122Z,12.23
2019-04-20T02:37:15.086Z,12.18
2019-04-20T02:42:29.334Z,12.13
2019-04-20T02:45:01.336Z,12.07
2019-04-20T02:47:30.615Z,12.02
2019-04-20T02:50:07.445Z,12.02
2019-04-20T02:52:34.013Z,12.05
2019-04-20T02:55:04.421Z,12.03
2019-04-20T02:57:32.705Z,12.02
2019-04-20T03:02:18.533Z,11.91
2019-04-20T03:04:40.246Z,11.87
2019-04-20T03:07:15.257Z,11.86
2019-04-20T03:09:55.088Z,11.82
2019-04-20T03:12:29.127Z,11.77
2019-04-20T03:14:54.071Z,11.69
2019-04-20T03:17:32.629Z,11.65
2019-04-20T03:19:54.989Z,11.70
2019-04-20T03:22:47.907Z,11.73
2019-04-20T03:25:06.324Z,11.74
2019-04-20T03:27:34.406Z,11.70
2019-04-20T03:30:39.515Z,11.67
2019-04-20T03:33:04.397Z,11.53
2019-04-20T03:35:22.355Z,11.46
2019-04-20T03:37:56.306Z,11.47
2019-04-20T03:40:19.333Z,11.45
2019-04-20T03:42:34.890Z,11.52
2019-04-20T03:45:12.465Z,11.50
2019-04-20T03:47:49.774Z,11.48
2019-04-20T03:50:37.581Z,11.43
2019-04-20T03:53:08.395Z,11.41
2019-04-20T03:55:41.895Z,11.42
2019-04-20T03:58:19.732Z,11.40
2019-04-20T04:00:55.690Z,11.36
2019-04-20T04:03:41.111Z,11.29
2019-04-20T04:06:07.684Z,11.24
2019-04-20T04:08:34.404Z,11.26
2019-04-20T04:11:18.919Z,11.22
2019-04-20T04:13:29.199Z,11.16
2019-04-20T04:16:03.264Z,11.07
2019-04-20T04:18:37.280Z,11.07
2019-04-20T04:21:07.954Z,11.06
2019-04-20T04:23:49.073Z,11.04
2019-04-20T04:26:21.994Z,10.99
2019-04-20T04:28:48.343Z,10.98
2019-04-20T04:31:25.972Z,10.96
2019-04-20T04:33:58.076Z,10.88
2019-04-20T04:36:28.992Z,10.91
2019-04-20T04:39:03.639Z,10.86
2019-04-20T04:41:31.093Z,10.81
2019-04-20T04:44:06.065Z,10.76
2019-04-20T04:46:16.532Z,10.74
2019-04-20T04:48:49.188Z,10.73
2019-04-20T04:51:22.966Z,10.68
2019-04-20T04:53:59.361Z,10.63
2019-04-20T04:56:23.412Z,10.66
2019-04-20T04:58:51.809Z,10.68
2019-04-20T05:01:25.940Z,10.71
2019-04-20T05:04:25.131Z,10.69
2019-04-20T05:06:41.428Z,10.68
2019-04-20T05:09:00.855Z,10.64
2019-04-20T05:11:28.040Z,10.58
2019-04-20T05:14:03.364Z,10.63
2019-04-20T05:16:46.032Z,10.74
2019-04-20T05:19:26.200Z,10.79
2019-04-20T05:21:58.677Z,10.83
2019-04-20T05:24:31.731Z,10.90
2019-04-20T05:27:13.608Z,10.95
2019-04-20T05:29:25.397Z,10.95
2019-04-20T05:31:59.960Z,10.96
2019-04-20T05:34:45.125Z,10.90
2019-04-20T05:37:23.706Z,10.92
2019-04-20T05:39:50.965Z,11.03
2019-04-20T05:42:23.200Z,11.07
2019-04-20T05:44:54.149Z,11.08
2019-04-20T05:47:21.677Z,11.08
2019-04-20T05:49:50.005Z,11.11
2019-04-20T05:52:36.116Z,11.17
2019-04-20T05:54:56.267Z,11.21
2019-04-20T05:57:30.246Z,11.27
2019-04-20T06:00:09.611Z,11.29
2019-04-20T06:02:32.084Z,11.36
2019-04-20T06:05:04.057Z,11.43
2019-04-20T06:07:35.844Z,11.51
2019-04-20T06:10:06.229Z,11.71
2019-04-20T06:12:35.806Z,11.89
2019-04-20T06:15:05.575Z,12.00
2019-04-20T06:17:59.634Z,12.23
2019-04-20T06:20:37.949Z,12.39
2019-04-20T06:23:11.908Z,12.60
2019-04-20T06:26:01.425Z,12.82
2019-04-20T06:28:12.771Z,13.02
2019-04-20T06:30:35.373Z,13.21
2019-04-20T06:39:16.094Z,13.87
2019-04-20T06:42:05.752Z,14.07
2019-04-20T06:44:16.503Z,14.21
2019-04-20T06:46:57.322Z,14.26
2019-04-20T06:49:25.144Z,14.33
2019-04-20T06:51:52.944Z,14.38
2019-04-20T06:54:19.886Z,14.54
2019-04-20T06:57:00.239Z,14.76
2019-04-20T06:59:42.230Z,14.95
2019-04-20T07:02:11.187Z,14.97
2019-04-20T07:04:41.993Z,15.02
2019-04-20T07:07:10.187Z,15.10
2019-04-20T07:09:46.455Z,15.02
2019-04-20T07:12:06.734Z,15.00
2019-04-20T07:14:35.935Z,15.01
2019-04-20T07:17:20.615Z,15.07
2019-04-20T07:19:44.471Z,15.17
2019-04-20T07:24:59.270Z,15.43
2019-04-20T07:27:25.907Z,15.53
2019-04-20T07:30:00.582Z,15.67
2019-04-20T07:32:17.809Z,15.98
2019-04-20T07:34:55.779Z,16.29
2019-04-20T07:38:03.190Z,16.53
2019-04-20T07:40:11.719Z,16.88
2019-04-20T07:42:43.798Z,17.06
2019-04-20T07:45:16.698Z,17.28
2019-04-20T07:47:45.917Z,17.43
2019-04-20T07:50:09.059Z,17.58
2019-04-20T07:52:40.842Z,17.75
2019-04-20T07:55:33.283Z,17.93
2019-04-20T07:57:44.121Z,18.19
2019-04-20T08:00:21.386Z,18.36
2019-04-20T08:03:12.175Z,18.59
2019-04-20T08:05:36.354Z,18.71
2019-04-20T08:08:17.138Z,18.77
2019-04-20T08:10:42.754Z,18.53
2019-04-20T08:13:30.182Z,18.60
2019-04-20T08:15:49.178Z,18.60
2019-04-20T08:20:52.839Z,19.18
2019-04-20T08:23:23.139Z,19.68
2019-04-20T08:25:47.399Z,20.13
2019-04-20T08:28:22.695Z,20.20
2019-04-20T08:31:08.877Z,20.27
2019-04-20T08:33:55.282Z,20.19
2019-04-20T08:36:22.787Z,20.07
2019-04-20T08:41:20.556Z,20.42
2019-04-20T08:46:26.555Z,20.67
2019-04-20T08:48:58.144Z,20.71
2019-04-20T08:51:34.689Z,20.76
2019-04-20T08:53:58.926Z,20.76
2019-04-20T08:56:25.919Z,20.78
2019-04-20T08:58:43.529Z,21.10
2019-04-20T09:01:20.040Z,21.39
2019-04-20T09:03:56.446Z,21.53
2019-04-20T09:06:33.638Z,21.53
2019-04-20T09:08:59.649Z,21.60
2019-04-20T09:11:45.179Z,22.09
2019-04-20T09:13:55.755Z,22.25
2019-04-20T09:16:26.971Z,22.32
2019-04-20T09:18:59.996Z,22.43
2019-04-20T09:21:35.551Z,22.54
2019-04-20T09:24:22.846Z,22.49
2019-04-20T09:26:42.864Z,22.39
2019-04-20T09:29:13.721Z,22.64
2019-04-20T09:31:43.288Z,22.77
2019-04-20T09:34:22.013Z,22.78
2019-04-20T09:36:51.331Z,22.53
2019-04-20T09:39:25.643Z,22.41
2019-04-20T09:42:05.808Z,22.51
2019-04-20T09:44:40.900Z,22.44
2019-04-20T09:47:10.075Z,22.36
2019-04-20T09:49:48.108Z,22.56
2019-04-20T09:52:21.245Z,22.83
2019-04-20T09:54:59.276Z,22.86
2019-04-20T09:57:33.631Z,22.81
2019-04-20T10:00:10.224Z,22.87
2019-04-20T10:02:24.863Z,22.98
2019-04-20T10:04:51.468Z,23.08
2019-04-20T10:07:25.792Z,23.18
2019-04-20T10:09:53.888Z,23.25
2019-04-20T10:12:24.141Z,23.33
2019-04-20T10:14:57.591Z,23.28
2019-04-20T10:17:29.656Z,23.35
2019-04-20T10:19:57.731Z,23.53
2019-04-20T10:22:28.716Z,23.76
2019-04-20T10:24:58.322Z,23.64
2019-04-20T10:27:28.459Z,23.51
2019-04-20T10:30:01.080Z,23.50
2019-04-20T10:32:38.806Z,23.44
2019-04-20T10:35:02.491Z,23.57
2019-04-20T10:37:33.611Z,23.94
2019-04-20T10:40:04.808Z,24.16
2019-04-20T10:42:36.278Z,23.99
2019-04-20T10:45:08.744Z,23.85
2019-04-20T10:47:38.978Z,23.91
2019-04-20T10:50:11.207Z,23.81
2019-04-20T10:52:41.667Z,23.53
2019-04-20T10:55:12.485Z,23.55
2019-04-20T10:57:43.786Z,23.76
2019-04-20T11:00:15.478Z,24.04
2019-04-20T11:02:47.418Z,24.22
2019-04-20T11:05:16.971Z,24.38
2019-04-20T11:07:46.775Z,24.51
2019-04-20T11:10:25.002Z,24.63
2019-04-20T11:12:50.527Z,24.64
2019-04-20T11:15:21.056Z,24.58
2019-04-20T11:17:51.389Z,24.72
2019-04-20T11:20:21.525Z,24.54
2019-04-20T11:22:52.571Z,24.59
2019-04-20T11:25:24.295Z,24.64
2019-04-20T11:27:54.450Z,24.76
2019-04-20T11:30:25.775Z,24.78
2019-04-20T11:32:56.036Z,24.89
2019-04-20T11:35:32.660Z,25.00
2019-04-20T11:37:58.305Z,24.93
2019-04-20T11:40:28.850Z,24.75
2019-04-20T11:42:59.581Z,24.65
2019-04-20T11:45:30.817Z,24.74
2019-04-20T11:48:01.187Z,24.78
2019-04-20T11:50:31.604Z,24.84
2019-04-20T11:53:01.552Z,24.91
2019-04-20T11:55:31.775Z,24.91
2019-04-20T11:58:01.945Z,24.80
2019-04-20T12:00:54.963Z,24.83
2019-04-20T12:03:25.996Z,24.86
2019-04-20T12:05:53.202Z,24.96
2019-04-20T12:08:20.710Z,24.92
2019-04-20T12:10:56.486Z,24.81
2019-04-20T12:13:24.690Z,24.67
2019-04-20T12:15:55.994Z,24.60
2019-04-20T12:18:25.636Z,24.62
2019-04-20T12:20:56.753Z,24.62
2019-04-20T12:23:28.455Z,24.59
2019-04-20T12:25:59.796Z,24.70
2019-04-20T12:28:29.729Z,24.82
2019-04-20T12:31:04.141Z,24.93
2019-04-20T12:33:30.786Z,24.84
2019-04-20T12:36:02.437Z,24.72
2019-04-20T12:38:32.880Z,24.54
2019-04-20T12:41:04.834Z,24.49
2019-04-20T12:43:34.192Z,24.47
2019-04-20T12:46:03.803Z,24.40
2019-04-20T12:48:33.975Z,24.51
2019-04-20T12:51:03.827Z,24.46
2019-04-20T12:53:34.831Z,24.52
2019-04-20T12:56:06.507Z,24.62
2019-04-20T12:58:36.656Z,24.60
2019-04-20T13:01:07.004Z,24.52
2019-04-20T13:03:37.348Z,24.36
2019-04-20T13:06:07.995Z,24.38
2019-04-20T13:08:43.421Z,24.38
2019-04-20T13:11:28.738Z,24.47
2019-04-20T13:14:30.449Z,24.41
2019-04-20T13:17:02.006Z,24.42
2019-04-20T13:19:33.193Z,24.51
2019-04-20T13:22:03.499Z,24.54
2019-04-20T13:24:33.123Z,24.64
2019-04-20T13:27:02.956Z,24.68
2019-04-20T13:29:33.181Z,24.69
2019-04-20T13:32:02.884Z,24.53
2019-04-20T13:34:33.750Z,24.52
2019-04-20T13:37:04.344Z,24.51
2019-04-20T13:39:35.116Z,24.52
2019-04-20T13:42:12.254Z,24.43
2019-04-20T13:44:36.930Z,24.60
2019-04-20T13:47:07.351Z,24.71
2019-04-20T13:49:37.054Z,24.69
2019-04-20T13:52:08.668Z,24.70
2019-04-20T13:54:40.047Z,24.70
2019-04-20T13:57:11.970Z,24.73
2019-04-20T13:59:46.185Z,24.83
2019-04-20T14:02:26.723Z,24.78
2019-04-20T14:04:59.022Z,24.73
2019-04-20T14:07:31.406Z,24.67
2019-04-20T14:10:01.895Z,24.68
2019-04-20T14:12:37.084Z,24.70
2019-04-20T14:15:06.884Z,24.75
2019-04-20T14:17:37.179Z,24.71
2019-04-20T14:20:13.389Z,24.71
2019-04-20T14:22:41.015Z,24.63
2019-04-20T14:25:11.195Z,24.61
2019-04-20T14:27:42.588Z,24.64
2019-04-20T14:30:13.451Z,24.60
2019-04-20T14:32:44.949Z,24.51
2019-04-20T14:35:16.667Z,24.47
2019-04-20T14:37:47.773Z,24.45
2019-04-20T14:40:18.677Z,24.50
2019-04-20T14:42:51.696Z,24.54
2019-04-20T14:45:20.757Z,24.59
2019-04-20T14:47:51.702Z,24.57
2019-04-20T14:50:23.343Z,24.53
2019-04-20T14:52:53.473Z,24.59
2019-04-20T14:55:24.207Z,24.50
2019-04-20T14:57:55.316Z,24.42
2019-04-20T15:00:53.301Z,24.37
2019-04-20T15:03:37.351Z,24.36
2019-04-20T15:06:09.974Z,24.35
2019-04-20T15:08:40.749Z,24.33
2019-04-20T15:11:10.600Z,24.31
2019-04-20T15:13:40.658Z,24.39
2019-04-20T15:16:10.849Z,24.43
2019-04-20T15:18:56.293Z,24.40
2019-04-20T15:21:29.160Z,24.44
2019-04-20T15:23:59.496Z,24.42
2019-04-20T15:26:30.622Z,24.41
2019-04-20T15:29:02.163Z,24.40
2019-04-20T15:31:32.736Z,24.37
2019-04-20T15:34:03.298Z,24.34
2019-04-20T15:36:36.132Z,24.35
2019-04-20T15:39:09.296Z,24.39
2019-04-20T15:41:39.239Z,24.42
2019-04-20T15:44:09.231Z,24.43
2019-04-20T15:46:40.038Z,24.42
2019-04-20T15:49:10.316Z,24.41
2019-04-20T15:51:40.012Z,24.38
2019-04-20T15:54:11.410Z,24.32
2019-04-20T15:56:48.911Z,24.27
2019-04-20T15:59:12.890Z,24.24
2019-04-20T16:01:49.617Z,24.23
2019-04-20T16:04:40.783Z,24.16
2019-04-20T16:07:10.885Z,24.17
2019-04-20T16:09:41.818Z,24.18
2019-04-20T16:12:13.028Z,24.14
2019-04-20T16:14:43.862Z,24.15
2019-04-20T16:17:15.071Z,24.11
2019-04-20T16:19:54.246Z,24.11
2019-04-20T16:22:19.807Z,24.03
2019-04-20T16:24:59.661Z,23.99
2019-04-20T16:27:29.740Z,23.97
2019-04-20T16:29:59.930Z,23.99
2019-04-20T16:32:30.543Z,23.99
2019-04-20T16:35:02.748Z,24.01
2019-04-20T16:37:32.747Z,23.95
2019-04-20T16:40:04.822Z,23.94
2019-04-20T16:42:38.474Z,23.89
2019-04-20T16:45:09.454Z,23.81
2019-04-20T16:47:39.960Z,23.79
2019-04-20T16:50:11.092Z,23.73
2019-04-20T16:52:41.324Z,23.75
2019-04-20T16:55:14.626Z,23.74
2019-04-20T16:57:47.833Z,23.75
2019-04-20T17:00:19.815Z,23.57
2019-04-20T17:02:50.174Z,23.50
2019-04-20T17:05:20.990Z,23.39
2019-04-20T17:07:53.138Z,23.24
2019-04-20T17:10:23.977Z,23.20
2019-04-20T17:12:53.794Z,23.13
2019-04-20T17:15:23.892Z,23.01
2019-04-20T17:17:55.358Z,22.96
2019-04-20T17:20:25.751Z,22.88
2019-04-20T17:22:56.328Z,22.83
2019-04-20T17:25:26.031Z,22.81
2019-04-20T17:28:13.382Z,22.72
2019-04-20T17:30:49.191Z,22.65
2019-04-20T17:33:25.758Z,22.56
2019-04-20T17:36:03.246Z,22.51
2019-04-20T17:38:24.871Z,22.41
2019-04-20T17:41:08.648Z,22.34
2019-04-20T17:43:33.274Z,22.28
2019-04-20T17:46:06.920Z,22.23
2019-04-20T17:48:42.190Z,22.15
2019-04-20T17:51:23.966Z,22.11
2019-04-20T17:53:52.799Z,22.04
2019-04-20T17:56:18.115Z,21.99
2019-04-20T17:58:48.020Z,21.85
2019-04-20T18:01:29.443Z,21.79
2019-04-20T18:04:19.730Z,21.73
2019-04-20T18:06:39.447Z,21.65
2019-04-20T18:09:06.629Z,21.61
2019-04-20T18:11:31.270Z,21.52
2019-04-20T18:14:06.527Z,21.46
2019-04-20T18:16:56.804Z,21.41
2019-04-20T18:19:21.994Z,21.39
2019-04-20T18:21:53.734Z,21.31
2019-04-20T18:24:50.961Z,21.18
2019-04-20T18:27:18.765Z,21.13
2019-04-20T18:29:45.562Z,21.07
2019-04-20T18:31:59.855Z,20.99
2019-04-20T18:34:31.932Z,20.92
2019-04-20T18:37:07.481Z,20.87
2019-04-20T18:39:42.083Z,20.83
2019-04-20T18:42:13.021Z,20.73
2019-04-20T18:44:57.132Z,20.66
2019-04-20T18:47:30.142Z,20.63
2019-04-20T18:49:50.498Z,20.55
2019-04-20T18:52:11.571Z,20.50
2019-04-20T18:54:44.915Z,20.51
2019-04-20T18:57:18.186Z,20.43
2019-04-20T18:59:50.471Z,20.39
2019-04-20T19:02:22.769Z,20.29
2019-04-20T19:04:48.232Z,20.25
2019-04-20T19:07:19.638Z,20.24
2019-04-20T19:09:53.234Z,20.21
2019-04-20T19:12:34.112Z,20.17
2019-04-20T19:15:04.995Z,20.11
2019-04-20T19:17:51.391Z,20.09
2019-04-20T19:20:23.425Z,19.98
2019-04-20T19:22:52.719Z,19.94
2019-04-20T19:25:27.144Z,19.92
2019-04-20T19:27:56.560Z,19.88
2019-04-20T19:30:35.204Z,19.84
2019-04-20T19:33:14.481Z,19.76
2019-04-20T19:35:40.882Z,19.68
2019-04-20T19:38:09.856Z,19.61
2019-04-20T19:40:45.396Z,19.60
2019-04-20T19:43:15.608Z,19.59
2019-04-20T19:45:56.592Z,19.53
2019-04-20T19:48:22.101Z,19.47
2019-04-20T19:51:00.782Z,19.44
2019-04-20T19:53:32.449Z,19.36
2019-04-20T19:55:54.861Z,19.30
2019-04-20T19:58:26.520Z,19.24
2019-04-20T20:00:53.649Z,19.18
2019-04-20T20:03:23.751Z,19.14
2019-04-20T20:05:54.806Z,19.10
2019-04-20T20:08:29.558Z,19.03
2019-04-20T20:11:00.885Z,19.00
2019-04-20T20:13:36.120Z,18.99
2019-04-20T20:16:06.029Z,18.96
2019-04-20T20:18:46.720Z,18.91
2019-04-20T20:21:16.908Z,18.83
2019-04-20T20:23:34.178Z,18.77
2019-04-20T20:26:07.197Z,18.68
2019-04-20T20:28:43.531Z,18.65
2019-04-20T20:31:17.042Z,18.62
2019-04-20T20:33:54.645Z,18.57
2019-04-20T20:36:15.723Z,18.55
2019-04-20T20:38:45.754Z,18.58
2019-04-20T20:41:20.607Z,18.60
2019-04-20T20:43:56.438Z,18.60
2019-04-20T20:46:23.979Z,18.59
2019-04-20T20:49:17.706Z,18.51
2019-04-20T20:51:44.291Z,18.48
2019-04-20T20:53:57.690Z,18.45
2019-04-20T20:56:25.059Z,18.36
2019-04-20T20:59:02.984Z,18.25
2019-04-20T21:01:26.473Z,18.07
2019-04-20T21:03:56.599Z,17.95
2019-04-20T21:06:26.646Z,17.88
2019-04-20T21:08:59.981Z,17.78
2019-04-20T21:11:31.432Z,17.71
2019-04-20T21:13:59.397Z,17.58
2019-04-20T21:16:31.921Z,17.56
2019-04-20T21:19:17.233Z,17.56
2019-04-20T21:21:42.250Z,17.55
2019-04-20T21:24:11.117Z,17.57
2019-04-20T21:26:40.939Z,17.57
2019-04-20T21:29:08.183Z,17.45
2019-04-20T21:31:38.634Z,17.33
2019-04-20T21:34:13.128Z,17.20
2019-04-20T21:36:40.887Z,17.12
2019-04-20T21:39:19.092Z,17.10
2019-04-20T21:41:50.923Z,17.11
2019-04-20T21:44:24.147Z,17.09
2019-04-20T21:46:49.621Z,17.04
2019-04-20T21:49:32.146Z,16.93
2019-04-20T21:51:55.418Z,16.77
2019-04-20T21:54:20.168Z,16.63
2019-04-20T21:56:56.319Z,16.49
2019-04-20T21:59:28.098Z,16.35
2019-04-20T22:01:58.515Z,16.22
2019-04-20T22:04:25.146Z,16.01
2019-04-20T22:06:56.217Z,15.92
2019-04-20T22:09:34.792Z,15.90
2019-04-20T22:11:58.109Z,15.85
2019-04-20T22:14:32.218Z,15.79
2019-04-20T22:17:01.841Z,15.75
2019-04-20T22:19:41.872Z,15.71
2019-04-20T22:22:12.914Z,15.70
2019-04-20T22:24:50.578Z,15.62
2019-04-20T22:27:14.467Z,15.51
2019-04-20T22:29:36.697Z,15.48
2019-04-20T22:32:12.731Z,15.34
2019-04-20T22:34:37.774Z,15.34
2019-04-20T22:37:09.726Z,15.29
2019-04-20T22:39:45.689Z,15.22
2019-04-20T22:42:14.371Z,15.22
2019-04-20T22:44:43.251Z,15.18
2019-04-20T22:47:20.799Z,15.12
2019-04-20T22:50:00.001Z,15.03
2019-04-20T22:52:30.454Z,14.92
2019-04-20T22:55:10.090Z,14.80
2019-04-20T22:57:36.948Z,14.81
2019-04-20T22:59:59.388Z,14.83
2019-04-20T23:02:23.642Z,14.82
2019-04-20T23:04:53.232Z,14.72
2019-04-20T23:07:23.110Z,14.71
2019-04-20T23:09:56.471Z,14.64
2019-04-20T23:12:26.899Z,14.57
2019-04-20T23:14:56.489Z,14.50
2019-04-20T23:17:33.571Z,14.44
2019-04-20T23:20:01.434Z,14.37
2019-04-20T23:22:36.842Z,14.46
2019-04-20T23:25:00.075Z,14.47
2019-04-20T23:27:32.105Z,14.42
2019-04-20T23:30:05.886Z,14.35
2019-04-20T23:32:33.747Z,14.33
2019-04-20T23:35:09.744Z,14.24
2019-04-20T23:37:38.548Z,14.15
2019-04-20T23:40:10.968Z,14.13
2019-04-20T23:42:51.611Z,14.08
2019-04-20T23:45:37.222Z,14.02
2019-04-20T23:48:05.323Z,13.98
2019-04-20T23:50:50.209Z,13.83
2019-04-20T23:53:27.365Z,13.64
2019-04-20T23:55:39.359Z,13.58
2019-04-20T23:58:12.238Z,13.52
